createdAt,value
2023-03-22T00:00:44.524Z,9.302846
2023-03-22T00:01:44.448Z,9.302876
2023-03-22T00:02:44.564Z,9.302981
2023-03-22T00:03:44.501Z,9.302746
2023-03-22T00:04:44.612Z,9.303000
2023-03-22T00:05:44.435Z,9.303009
2023-03-22T00:06:44.460Z,9.303016
2023-03-22T00:07:44.466Z,9.302871
2023-03-22T00:08:44.395Z,9.302729
2023-03-22T00:09:44.451Z,9.302775
2023-03-22T00:10:44.390Z,9.302997
2023-03-22T00:11:44.518Z,9.302890
2023-03-22T00:12:44.387Z,9.302713
2023-03-22T00:13:44.385Z,9.302573
2023-03-22T00:14:44.416Z,9.302664
2023-03-22T00:15:44.390Z,9.302788
2023-03-22T00:16:44.370Z,9.302940
2023-03-22T00:17:44.360Z,9.302933
2023-03-22T00:18:44.388Z,9.302752
2023-03-22T00:19:44.330Z,9.302731
2023-03-22T00:20:44.333Z,9.302631
2023-03-22T00:21:44.315Z,9.302588
2023-03-22T00:22:44.298Z,9.302962
2023-03-22T00:23:44.323Z,9.302993
2023-03-22T00:24:44.265Z,9.303001
2023-03-22T00:25:45.060Z,9.302995
2023-03-22T00:26:44.236Z,9.302959
2023-03-22T00:27:44.271Z,9.303110
2023-03-22T00:28:44.212Z,9.303088
2023-03-22T00:29:44.252Z,9.302994
2023-03-22T00:30:44.213Z,9.302527
2023-03-22T00:31:44.201Z,9.302711
2023-03-22T00:32:44.225Z,9.302744
2023-03-22T00:33:44.231Z,9.302896
2023-03-22T00:34:44.253Z,9.303069
2023-03-22T00:35:44.165Z,9.302849
2023-03-22T00:36:44.164Z,9.302730
2023-03-22T00:37:44.177Z,9.302847
2023-03-22T00:38:44.726Z,9.302952
2023-03-22T00:39:45.140Z,9.303013
2023-03-22T00:40:44.139Z,9.302907
2023-03-22T00:41:44.128Z,9.302896
2023-03-22T00:42:44.133Z,9.303205
2023-03-22T00:43:44.093Z,9.303036
2023-03-22T00:44:44.064Z,9.302951
2023-03-22T00:45:44.132Z,9.302758
2023-03-22T00:46:44.095Z,9.302792
2023-03-22T00:47:44.108Z,9.302874
2023-03-22T00:48:44.083Z,9.302884
2023-03-22T00:49:44.014Z,9.303010
2023-03-22T00:50:44.034Z,9.302879
2023-03-22T00:51:44.004Z,9.303008
2023-03-22T00:52:43.972Z,9.303118
2023-03-22T00:53:44.081Z,9.302906
2023-03-22T00:54:44.005Z,9.302974
2023-03-22T00:55:43.982Z,9.303026
2023-03-22T00:56:43.946Z,9.303060
2023-03-22T00:57:43.939Z,9.303099
2023-03-22T00:58:43.929Z,9.302884
2023-03-22T00:59:43.971Z,9.302920
2023-03-22T01:00:44.049Z,9.303046
2023-03-22T01:01:43.909Z,9.302946
2023-03-22T01:02:43.956Z,9.302964
2023-03-22T01:03:44.036Z,9.302943
2023-03-22T01:04:43.913Z,9.302943
2023-03-22T01:05:43.922Z,9.303070
2023-03-22T01:06:43.914Z,9.302986
2023-03-22T01:07:43.942Z,9.302971
2023-03-22T01:08:43.872Z,9.303016
2023-03-22T01:09:43.842Z,9.302977
2023-03-22T01:10:43.920Z,9.303067
2023-03-22T01:11:43.820Z,9.302977
2023-03-22T01:12:43.816Z,9.302984
2023-03-22T01:13:43.821Z,9.302963
2023-03-22T01:14:43.845Z,9.303061
2023-03-22T01:15:43.763Z,9.303052
2023-03-22T01:16:43.824Z,9.302999
2023-03-22T01:17:43.766Z,9.302983
2023-03-22T01:18:43.741Z,9.303025
2023-03-22T01:19:43.739Z,9.303031
2023-03-22T01:20:43.688Z,9.303020
2023-03-22T01:21:43.740Z,9.303027
2023-03-22T01:22:43.706Z,9.302978
2023-03-22T01:23:43.698Z,9.302934
2023-03-22T01:24:43.694Z,9.302938
2023-03-22T01:25:43.715Z,9.303045
2023-03-22T01:26:43.698Z,9.303083
2023-03-22T01:27:43.685Z,9.303016
2023-03-22T01:28:43.671Z,9.303015
2023-03-22T01:29:43.623Z,9.302959
2023-03-22T01:30:43.701Z,9.303007
2023-03-22T01:31:43.621Z,9.302949
2023-03-22T01:32:43.587Z,9.302949
2023-03-22T01:33:43.582Z,9.303022
2023-03-22T01:34:43.594Z,9.303021
2023-03-22T01:35:43.657Z,9.302966
2023-03-22T01:36:43.571Z,9.302968
2023-03-22T01:37:43.607Z,9.303007
2023-03-22T01:38:43.506Z,9.302953
2023-03-22T01:39:43.544Z,9.303061
2023-03-22T01:40:43.539Z,9.302902
2023-03-22T01:41:43.538Z,9.302959
2023-03-22T01:42:44.055Z,9.303011
2023-03-22T01:43:43.514Z,9.303042
2023-03-22T01:44:43.488Z,9.302960
2023-03-22T01:45:43.512Z,9.302932
2023-03-22T01:46:43.460Z,9.303011
2023-03-22T01:47:43.509Z,9.303093
2023-03-22T01:48:43.464Z,9.303015
2023-03-22T01:49:44.070Z,9.302971
2023-03-22T01:50:43.498Z,9.302926
2023-03-22T01:51:43.941Z,9.303033
2023-03-22T01:52:44.395Z,9.302992
2023-03-22T01:53:43.383Z,9.303049
2023-03-22T01:54:43.400Z,9.303135
2023-03-22T01:55:43.409Z,9.303022
2023-03-22T01:56:43.425Z,9.302951
2023-03-22T01:57:43.360Z,9.302894
2023-03-22T01:58:43.358Z,9.303033
2023-03-22T01:59:43.351Z,9.302881
2023-03-22T02:00:43.335Z,9.302939
2023-03-22T02:01:43.399Z,9.302972
2023-03-22T02:02:43.319Z,9.303137
2023-03-22T02:03:44.120Z,9.303177
2023-03-22T02:04:43.267Z,9.302901
2023-03-22T02:05:43.388Z,9.302931
2023-03-22T02:06:44.286Z,9.302982
2023-03-22T02:07:43.276Z,9.303020
2023-03-22T02:08:43.280Z,9.303013
2023-03-22T02:09:43.250Z,9.302956
2023-03-22T02:10:43.348Z,9.302919
2023-03-22T02:11:43.241Z,9.303009
2023-03-22T02:12:43.211Z,9.303074
2023-03-22T02:13:43.209Z,9.303080
2023-03-22T02:14:43.176Z,9.303234
2023-03-22T02:15:43.230Z,9.303014
2023-03-22T02:16:43.168Z,9.302988
2023-03-22T02:17:44.063Z,9.303051
2023-03-22T02:18:43.202Z,9.302999
2023-03-22T02:19:43.180Z,9.302944
2023-03-22T02:20:43.176Z,9.303045
2023-03-22T02:21:43.133Z,9.303029
2023-03-22T02:22:43.098Z,9.302975
2023-03-22T02:23:43.113Z,9.303107
2023-03-22T02:24:43.995Z,9.303194
2023-03-22T02:25:44.103Z,9.303124
2023-03-22T02:26:43.197Z,9.303039
2023-03-22T02:27:43.042Z,9.303104
2023-03-22T02:28:43.065Z,9.303161
2023-03-22T02:29:43.087Z,9.303064
2023-03-22T02:30:43.049Z,9.303047
2023-03-22T02:31:43.059Z,9.303024
2023-03-22T02:32:43.014Z,9.303200
2023-03-22T02:33:43.240Z,9.303160
2023-03-22T02:34:42.989Z,9.303164
2023-03-22T02:35:43.044Z,9.303055
2023-03-22T02:36:42.957Z,9.302938
2023-03-22T02:37:42.986Z,9.303168
2023-03-22T02:38:42.976Z,9.302983
2023-03-22T02:39:42.937Z,9.303068
2023-03-22T02:40:43.136Z,9.303093
2023-03-22T02:41:42.930Z,9.303136
2023-03-22T02:42:42.893Z,9.302874
2023-03-22T02:43:42.915Z,9.302994
2023-03-22T02:44:42.933Z,9.303015
2023-03-22T02:45:42.979Z,9.302920
2023-03-22T02:46:42.956Z,9.302837
2023-03-22T02:47:42.960Z,9.302772
2023-03-22T02:48:42.836Z,9.302866
2023-03-22T02:49:42.840Z,9.302801
2023-03-22T02:50:42.846Z,9.302971
2023-03-22T02:51:42.822Z,9.302948
2023-03-22T02:52:42.869Z,9.302835
2023-03-22T02:53:42.809Z,9.302956
2023-03-22T02:54:44.586Z,9.303021
2023-03-22T02:55:43.814Z,9.302928
2023-03-22T02:56:42.798Z,9.303006
2023-03-22T02:57:42.787Z,9.302926
2023-03-22T02:58:42.779Z,9.302842
2023-03-22T02:59:42.713Z,9.302633
2023-03-22T03:00:43.011Z,9.302838
2023-03-22T03:01:42.811Z,9.302843
2023-03-22T03:02:42.690Z,9.302900
2023-03-22T03:03:42.702Z,9.302919
2023-03-22T03:04:42.711Z,9.302934
2023-03-22T03:05:42.711Z,9.302752
2023-03-22T03:06:42.648Z,9.302793
2023-03-22T03:07:42.668Z,9.303020
2023-03-22T03:08:42.693Z,9.303092
2023-03-22T03:09:42.650Z,9.303014
2023-03-22T03:10:42.656Z,9.302944
2023-03-22T03:11:42.622Z,9.302959
2023-03-22T03:12:42.640Z,9.302909
2023-03-22T03:13:42.589Z,9.302833
2023-03-22T03:14:42.595Z,9.302917
2023-03-22T03:15:42.609Z,9.302912
2023-03-22T03:16:42.600Z,9.302779
2023-03-22T03:17:42.558Z,9.302892
2023-03-22T03:18:42.589Z,9.302962
2023-03-22T03:19:42.587Z,9.302832
2023-03-22T03:20:42.582Z,9.302952
2023-03-22T03:21:42.523Z,9.302969
2023-03-22T03:22:42.514Z,9.303049
2023-03-22T03:23:42.515Z,9.303012
2023-03-22T03:24:42.508Z,9.303002
2023-03-22T03:25:42.545Z,9.303015
2023-03-22T03:26:42.477Z,9.302988
2023-03-22T03:27:42.494Z,9.303038
2023-03-22T03:28:42.441Z,9.302950
2023-03-22T03:29:42.444Z,9.302898
2023-03-22T03:30:42.450Z,9.302909
2023-03-22T03:31:42.563Z,9.303082
2023-03-22T03:32:42.438Z,9.303093
2023-03-22T03:33:42.381Z,9.303057
2023-03-22T03:34:42.374Z,9.303101
2023-03-22T03:35:42.428Z,9.303012
2023-03-22T03:36:42.922Z,9.303047
2023-03-22T03:37:42.353Z,9.303067
2023-03-22T03:38:42.364Z,9.302936
2023-03-22T03:39:42.333Z,9.302850
2023-03-22T03:40:42.354Z,9.303086
2023-03-22T03:41:42.359Z,9.303046
2023-03-22T03:42:42.323Z,9.303020
2023-03-22T03:43:42.408Z,9.302956
2023-03-22T03:44:42.245Z,9.302904
2023-03-22T03:45:42.379Z,9.302870
2023-03-22T03:46:42.265Z,9.302929
2023-03-22T03:47:42.308Z,9.302888
2023-03-22T03:48:42.272Z,9.302960
2023-03-22T03:49:42.265Z,9.302986
2023-03-22T03:50:42.447Z,9.303024
2023-03-22T03:51:42.212Z,9.303025
2023-03-22T03:52:43.273Z,9.302932
2023-03-22T03:53:43.230Z,9.303005
2023-03-22T03:54:42.176Z,9.303080
2023-03-22T03:55:42.230Z,9.303019
2023-03-22T03:56:42.172Z,9.303014
2023-03-22T03:57:42.179Z,9.302965
2023-03-22T03:58:42.171Z,9.302964
2023-03-22T03:59:42.182Z,9.303018
2023-03-22T04:00:42.268Z,9.302980
2023-03-22T04:01:42.123Z,9.303041
2023-03-22T04:02:42.194Z,9.303003
2023-03-22T04:03:42.129Z,9.303097
2023-03-22T04:04:42.185Z,9.303119
2023-03-22T04:05:42.093Z,9.302909
2023-03-22T04:06:42.072Z,9.303026
2023-03-22T04:07:42.109Z,9.302949
2023-03-22T04:08:42.049Z,9.303000
2023-03-22T04:09:42.140Z,9.303012
2023-03-22T04:10:42.081Z,9.302974
2023-03-22T04:11:42.026Z,9.302953
2023-03-22T04:12:42.035Z,9.303075
2023-03-22T04:13:42.026Z,9.303050
2023-03-22T04:14:42.119Z,9.302939
2023-03-22T04:15:41.991Z,9.303051
2023-03-22T04:16:42.054Z,9.302936
2023-03-22T04:17:42.014Z,9.302967
2023-03-22T04:18:41.979Z,9.303028
2023-03-22T04:19:41.972Z,9.302991
2023-03-22T04:20:42.165Z,9.302999
2023-03-22T04:21:41.982Z,9.302970
2023-03-22T04:22:41.894Z,9.303001
2023-03-22T04:23:41.928Z,9.303031
2023-03-22T04:24:41.899Z,9.303031
2023-03-22T04:25:41.951Z,9.302991
2023-03-22T04:26:41.886Z,9.303032
2023-03-22T04:27:41.861Z,9.303063
2023-03-22T04:28:42.060Z,9.303107
2023-03-22T04:29:41.864Z,9.302976
2023-03-22T04:30:42.288Z,9.303045
2023-03-22T04:31:41.835Z,9.302960
2023-03-22T04:32:41.850Z,9.303036
2023-03-22T04:33:41.803Z,9.303165
2023-03-22T04:34:41.804Z,9.303021
2023-03-22T04:35:42.669Z,9.302951
2023-03-22T04:36:41.829Z,9.303024
2023-03-22T04:37:41.826Z,9.302937
2023-03-22T04:38:41.813Z,9.303007
2023-03-22T04:39:41.766Z,9.302979
2023-03-22T04:40:42.216Z,9.302994
2023-03-22T04:41:41.760Z,9.303084
2023-03-22T04:42:41.848Z,9.303044
2023-03-22T04:43:41.691Z,9.302992
2023-03-22T04:44:41.770Z,9.302997
2023-03-22T04:45:41.827Z,9.303042
2023-03-22T04:46:41.729Z,9.302872
2023-03-22T04:47:41.743Z,9.302734
2023-03-22T04:48:41.705Z,9.302898
2023-03-22T04:49:41.706Z,9.302999
2023-03-22T04:50:42.018Z,9.303041
2023-03-22T04:51:41.703Z,9.302977
2023-03-22T04:52:41.652Z,9.302850
2023-03-22T04:53:41.651Z,9.302860
2023-03-22T04:54:41.626Z,9.302705
2023-03-22T04:55:41.642Z,9.302803
2023-03-22T04:56:41.621Z,9.303120
2023-03-22T04:57:41.611Z,9.302979
2023-03-22T04:58:41.581Z,9.302921
2023-03-22T04:59:41.584Z,9.302895
2023-03-22T05:00:41.883Z,9.302886
2023-03-22T05:01:41.622Z,9.302896
2023-03-22T05:02:41.800Z,9.302852
2023-03-22T05:03:41.513Z,9.302844
2023-03-22T05:04:41.488Z,9.303005
2023-03-22T05:05:41.492Z,9.302882
2023-03-22T05:06:41.529Z,9.302905
2023-03-22T05:07:41.502Z,9.302919
2023-03-22T05:08:41.469Z,9.302920
2023-03-22T05:09:41.448Z,9.302886
2023-03-22T05:10:41.961Z,9.302823
2023-03-22T05:11:41.484Z,9.302945
2023-03-22T05:12:41.427Z,9.302878
2023-03-22T05:13:41.427Z,9.303035
2023-03-22T05:14:41.470Z,9.302838
2023-03-22T05:15:41.452Z,9.302898
2023-03-22T05:16:41.451Z,9.302863
2023-03-22T05:17:41.431Z,9.302702
2023-03-22T05:18:41.363Z,9.302582
2023-03-22T05:19:41.394Z,9.302629
2023-03-22T05:20:41.556Z,9.302779
2023-03-22T05:21:41.400Z,9.302837
2023-03-22T05:22:41.476Z,9.302973
2023-03-22T05:23:41.318Z,9.302979
2023-03-22T05:24:41.304Z,9.302925
2023-03-22T05:25:41.272Z,9.302846
2023-03-22T05:26:41.325Z,9.302804
2023-03-22T05:27:41.289Z,9.302752
2023-03-22T05:28:41.271Z,9.302489
2023-03-22T05:29:41.290Z,9.302913
2023-03-22T05:30:41.579Z,9.303036
2023-03-22T05:31:41.307Z,9.302974
2023-03-22T05:32:41.276Z,9.302844
2023-03-22T05:33:41.249Z,9.302849
2023-03-22T05:34:41.236Z,9.302671
2023-03-22T05:35:41.244Z,9.302974
2023-03-22T05:36:41.567Z,9.302853
2023-03-22T05:37:41.240Z,9.302781
2023-03-22T05:38:41.209Z,9.302733
2023-03-22T05:39:41.169Z,9.302747
2023-03-22T05:40:41.497Z,9.302835
2023-03-22T05:41:41.154Z,9.302903
2023-03-22T05:42:41.134Z,9.302852
2023-03-22T05:43:41.209Z,9.302828
2023-03-22T05:44:41.103Z,9.302920
2023-03-22T05:45:41.193Z,9.302856
2023-03-22T05:46:41.205Z,9.302902
2023-03-22T05:47:41.116Z,9.302910
2023-03-22T05:48:41.103Z,9.302963
2023-03-22T05:49:41.071Z,9.302964
2023-03-22T05:50:42.059Z,9.302957
2023-03-22T05:51:41.090Z,9.302925
2023-03-22T05:52:41.123Z,9.303001
2023-03-22T05:53:41.066Z,9.303023
2023-03-22T05:54:41.071Z,9.302957
2023-03-22T05:55:41.030Z,9.302983
2023-03-22T05:56:41.034Z,9.302930
2023-03-22T05:57:41.542Z,9.303034
2023-03-22T05:58:41.005Z,9.303025
2023-03-22T05:59:40.945Z,9.303068
2023-03-22T06:00:41.293Z,9.302995
2023-03-22T06:01:41.006Z,9.302978
2023-03-22T06:02:41.013Z,9.303012
2023-03-22T06:03:40.952Z,9.302985
2023-03-22T06:04:40.955Z,9.303063
2023-03-22T06:05:40.900Z,9.302940
2023-03-22T06:06:41.134Z,9.303012
2023-03-22T06:07:40.873Z,9.302918
2023-03-22T06:08:40.903Z,9.302891
2023-03-22T06:09:40.868Z,9.302906
2023-03-22T06:10:41.112Z,9.303041
2023-03-22T06:11:40.858Z,9.303090
2023-03-22T06:12:40.834Z,9.303091
2023-03-22T06:13:40.834Z,9.303048
2023-03-22T06:14:41.846Z,9.303115
2023-03-22T06:15:40.932Z,9.303163
2023-03-22T06:16:40.848Z,9.302911
2023-03-22T06:17:40.805Z,9.302862
2023-03-22T06:18:40.782Z,9.302940
2023-03-22T06:39:37.244Z,9.303182
2023-03-22T06:40:37.296Z,9.303494
2023-03-22T06:41:37.160Z,9.303559
2023-03-22T06:42:37.172Z,9.303127
2023-03-22T06:43:37.194Z,9.303084
2023-03-22T06:44:37.207Z,9.303098
2023-03-22T06:45:37.039Z,9.303142
2023-03-22T06:46:37.014Z,9.303052
2023-03-22T06:47:37.027Z,9.303164
2023-03-22T06:48:37.022Z,9.303088
2023-03-22T06:49:37.018Z,9.303027
2023-03-22T06:50:37.202Z,9.302958
2023-03-22T06:51:36.965Z,9.303042
2023-03-22T06:52:37.045Z,9.302954
2023-03-22T06:53:38.017Z,9.303035
2023-03-22T06:54:36.985Z,9.302999
2023-03-22T06:55:36.928Z,9.303016
2023-03-22T06:56:36.950Z,9.303098
2023-03-22T06:57:36.909Z,9.303002
2023-03-22T06:58:36.919Z,9.303055
2023-03-22T06:59:37.020Z,9.302931
2023-03-22T07:00:36.942Z,9.302974
2023-03-22T07:01:36.962Z,9.302935
2023-03-22T07:02:36.857Z,9.302852
2023-03-22T07:03:36.843Z,9.303014
2023-03-22T07:04:36.858Z,9.302999
2023-03-22T07:05:36.839Z,9.302983
2023-03-22T07:06:36.829Z,9.302991
2023-03-22T07:07:36.921Z,9.302962
2023-03-22T07:08:36.824Z,9.303135
2023-03-22T07:09:36.856Z,9.303146
2023-03-22T07:10:36.836Z,9.303077
2023-03-22T07:11:36.809Z,9.303028
2023-03-22T07:12:36.755Z,9.303000
2023-03-22T07:13:36.749Z,9.303020
2023-03-22T07:14:36.869Z,9.303005
2023-03-22T07:15:36.769Z,9.302985
2023-03-22T07:16:36.877Z,9.302975
2023-03-22T07:17:36.734Z,9.303027
2023-03-22T07:18:36.772Z,9.302869
2023-03-22T07:19:36.844Z,9.302990
2023-03-22T07:20:40.768Z,9.303082
2023-03-22T07:21:36.770Z,9.303123
2023-03-22T07:22:36.684Z,9.303068
2023-03-22T07:23:36.720Z,9.303037
2023-03-22T07:24:44.623Z,9.303062
2023-03-22T07:25:38.908Z,9.303033
2023-03-22T07:26:36.866Z,9.303023
2023-03-22T07:27:36.950Z,9.303049
2023-03-22T07:28:36.877Z,9.303036
2023-03-22T07:29:36.638Z,9.303043
2023-03-22T07:30:36.586Z,9.303070
2023-03-22T07:31:36.620Z,9.303020
2023-03-22T07:32:36.841Z,9.303070
2023-03-22T07:33:37.630Z,9.302995
2023-03-22T07:34:36.778Z,9.302939
2023-03-22T07:35:36.533Z,9.302995
2023-03-22T07:36:36.516Z,9.303020
2023-03-22T07:37:36.551Z,9.303020
2023-03-22T07:38:36.532Z,9.303018
2023-03-22T07:45:54.279Z,9.303106
2023-03-22T08:14:30.766Z,9.302932
2023-03-22T08:15:24.359Z,9.302981
2023-03-22T08:16:22.492Z,9.302968
2023-03-22T08:17:22.346Z,9.302963
2023-03-22T08:18:22.233Z,9.303058
2023-03-22T08:19:22.232Z,9.303021
2023-03-22T08:20:22.368Z,9.303014
2023-03-22T08:21:22.250Z,9.303036
2023-03-22T08:22:22.263Z,9.303026
2023-03-22T08:23:28.901Z,9.303041
2023-03-22T08:24:24.258Z,9.302977
2023-03-22T08:25:22.310Z,9.303093
2023-03-22T08:26:22.452Z,9.303052
2023-03-22T08:27:22.179Z,9.302869
2023-03-22T08:28:22.182Z,9.302870
2023-03-22T08:29:22.145Z,9.302926
2023-03-22T08:30:22.157Z,9.302954
2023-03-22T08:31:22.135Z,9.303052
2023-03-22T08:32:22.174Z,9.302937
2023-03-22T08:33:22.215Z,9.302912
2023-03-22T08:34:22.194Z,9.302928
2023-03-22T08:35:22.110Z,9.302859
2023-03-22T08:36:22.069Z,9.302915
2023-03-22T08:37:22.199Z,9.302938
2023-03-22T08:38:22.068Z,9.302954
2023-03-22T08:39:22.043Z,9.302994
2023-03-22T08:40:22.040Z,9.302896
2023-03-22T08:41:22.143Z,9.302900
2023-03-22T08:42:22.033Z,9.302871
2023-03-22T08:43:22.073Z,9.303036
2023-03-22T08:44:22.063Z,9.302988
2023-03-22T08:45:22.037Z,9.302891
2023-03-22T08:46:21.975Z,9.302945
2023-03-22T08:47:21.976Z,9.302948
2023-03-22T08:48:21.984Z,9.302927
2023-03-22T08:49:21.996Z,9.302894
2023-03-22T08:50:21.978Z,9.302929
2023-03-22T08:51:21.907Z,9.302996
2023-03-22T08:52:22.049Z,9.302833
2023-03-22T08:53:21.961Z,9.302872
2023-03-22T08:54:21.911Z,9.302916
2023-03-22T08:55:21.922Z,9.302921
2023-03-22T08:56:21.903Z,9.302845
2023-03-22T08:57:22.033Z,9.302938
2023-03-22T08:58:22.001Z,9.303053
2023-03-22T08:59:21.879Z,9.303084
2023-03-22T09:00:21.878Z,9.303050
2023-03-22T09:01:22.047Z,9.302902
2023-03-22T09:02:22.003Z,9.302910
2023-03-22T09:03:21.882Z,9.302977
2023-03-22T09:04:22.882Z,9.303097
2023-03-22T09:05:21.806Z,9.302849
2023-03-22T09:06:21.796Z,9.302918
2023-03-22T09:07:21.818Z,9.302936
2023-03-22T09:08:21.826Z,9.302948
2023-03-22T09:09:22.010Z,9.302990
2023-03-22T09:10:21.718Z,9.303014
2023-03-22T09:11:21.746Z,9.302958
2023-03-22T09:12:21.725Z,9.302958
2023-03-22T09:13:21.748Z,9.302954
2023-03-22T09:14:21.750Z,9.302894
2023-03-22T09:15:21.718Z,9.302979
2023-03-22T09:16:21.781Z,9.302956
2023-03-22T09:17:22.595Z,9.302942
2023-03-22T09:18:22.658Z,9.302959
2023-03-22T09:19:21.908Z,9.302911
2023-03-22T09:20:21.717Z,9.302917
2023-03-22T09:21:21.721Z,9.302986
2023-03-22T09:22:21.653Z,9.303005
2023-03-22T09:23:21.743Z,9.302869
2023-03-22T09:24:21.706Z,9.302825
2023-03-22T09:25:21.688Z,9.302999
2023-03-22T09:26:21.583Z,9.303036
2023-03-22T09:27:21.669Z,9.302938
2023-03-22T09:28:21.650Z,9.302952
2023-03-22T09:29:22.258Z,9.303031
2023-03-22T09:30:21.544Z,9.302831
2023-03-22T09:31:21.571Z,9.302797
2023-03-22T09:32:21.580Z,9.302818
2023-03-22T09:33:21.836Z,9.302739
2023-03-22T09:34:21.512Z,9.302943
2023-03-22T09:35:21.558Z,9.302888
2023-03-22T09:36:21.480Z,9.302959
2023-03-22T09:37:21.782Z,9.302998
2023-03-22T09:38:21.733Z,9.302892
2023-03-22T09:39:21.999Z,9.302990
2023-03-22T09:40:21.538Z,9.302945
2023-03-22T09:41:21.428Z,9.302913
2023-03-22T09:42:21.475Z,9.302893
2023-03-22T09:43:21.452Z,9.302957
2023-03-22T09:44:21.636Z,9.302917
2023-03-22T09:45:21.387Z,9.302987
2023-03-22T09:46:22.392Z,9.302971
2023-03-22T09:47:21.378Z,9.302932
2023-03-22T09:48:21.427Z,9.302910
2023-03-22T09:49:21.363Z,9.303051
2023-03-22T09:50:21.365Z,9.302996
2023-03-22T09:51:21.332Z,9.303029
2023-03-22T09:52:21.402Z,9.303120
2023-03-22T09:53:21.430Z,9.302926
2023-03-22T09:54:21.594Z,9.302953
2023-03-22T09:55:21.276Z,9.303012
2023-03-22T09:56:21.313Z,9.303101
2023-03-22T09:57:21.343Z,9.303077
2023-03-22T09:58:21.334Z,9.303038
2023-03-22T09:59:21.282Z,9.302967
2023-03-22T10:00:21.513Z,9.303028
2023-03-22T10:01:21.476Z,9.302910
2023-03-22T10:02:21.479Z,9.302791
2023-03-22T10:03:21.855Z,9.302892
2023-03-22T10:04:21.250Z,9.302768
2023-03-22T10:05:21.462Z,9.302732
2023-03-22T10:06:21.254Z,9.302979
2023-03-22T10:07:21.161Z,9.303036
2023-03-22T10:08:21.279Z,9.302885
2023-03-22T10:09:21.381Z,9.302940
2023-03-22T10:10:22.067Z,9.302946
2023-03-22T10:11:21.268Z,9.302959
2023-03-22T10:12:21.252Z,9.303015
2023-03-22T10:13:21.206Z,9.303039
2023-03-22T10:14:21.135Z,9.303123
2023-03-22T10:15:21.120Z,9.303071
2023-03-22T10:16:21.174Z,9.303063
2023-03-22T10:17:21.371Z,9.303116
2023-03-22T10:18:21.148Z,9.303082
2023-03-22T10:19:21.245Z,9.303058
2023-03-22T10:20:21.054Z,9.303101
2023-03-22T10:21:21.049Z,9.303075
2023-03-22T10:22:21.055Z,9.303075
2023-03-22T10:23:21.058Z,9.303029
2023-03-22T10:24:21.872Z,9.303163
2023-03-22T10:25:21.149Z,9.303030
2023-03-22T10:26:20.994Z,9.302783
2023-03-22T10:27:21.021Z,9.302879
2023-03-22T10:28:21.003Z,9.303023
2023-03-22T10:29:21.233Z,9.302999
2023-03-22T10:30:21.047Z,9.303025
2023-03-22T10:31:21.306Z,9.303032
2023-03-22T10:32:20.929Z,9.303074
2023-03-22T10:33:20.922Z,9.303055
2023-03-22T10:34:21.017Z,9.303023
2023-03-22T10:35:20.916Z,9.303037
2023-03-22T10:36:21.049Z,9.302954
2023-03-22T10:37:20.902Z,9.302956
2023-03-22T10:38:20.918Z,9.303060
2023-03-22T10:39:20.914Z,9.302986
2023-03-22T10:40:20.851Z,9.303036
2023-03-22T10:41:20.960Z,9.302991
2023-03-22T10:42:20.845Z,9.303008
2023-03-22T10:43:20.870Z,9.303006
2023-03-22T10:44:20.900Z,9.303000
2023-03-22T10:45:21.278Z,9.302989
2023-03-22T10:46:20.843Z,9.303056
2023-03-22T10:47:20.852Z,9.303074
2023-03-22T10:48:20.915Z,9.302992
2023-03-22T10:49:20.778Z,9.303084
2023-03-22T10:50:20.742Z,9.302972
2023-03-22T10:51:20.831Z,9.303045
2023-03-22T10:52:20.799Z,9.303040
2023-03-22T10:53:20.843Z,9.302999
2023-03-22T10:54:20.734Z,9.303019
2023-03-22T10:55:21.504Z,9.303025
2023-03-22T10:56:20.705Z,9.303021
2023-03-22T10:57:20.791Z,9.302941
2023-03-22T10:58:20.776Z,9.302962
2023-03-22T10:59:20.679Z,9.302980
2023-03-22T11:00:21.020Z,9.303037
2023-03-22T11:01:20.732Z,9.303055
2023-03-22T11:02:20.727Z,9.303081
2023-03-22T11:03:20.643Z,9.302902
2023-03-22T11:04:20.644Z,9.302894
2023-03-22T11:05:20.606Z,9.302745
2023-03-22T11:06:20.629Z,9.302767
2023-03-22T11:07:20.653Z,9.302771
2023-03-22T11:08:20.642Z,9.302756
2023-03-22T11:09:21.128Z,9.302911
2023-03-22T11:10:20.585Z,9.302985
2023-03-22T11:11:20.767Z,9.302974
2023-03-22T11:12:20.578Z,9.302926
2023-03-22T11:13:20.764Z,9.302885
2023-03-22T11:14:20.691Z,9.302746
2023-03-22T11:15:20.483Z,9.302994
2023-03-22T11:16:20.538Z,9.302956
2023-03-22T11:17:20.672Z,9.302973
2023-03-22T11:18:20.694Z,9.302996
2023-03-22T11:19:20.632Z,9.302955
2023-03-22T11:20:21.366Z,9.302880
2023-03-22T11:21:20.525Z,9.302866
2023-03-22T11:22:20.445Z,9.302966
2023-03-22T11:23:20.503Z,9.302928
2023-03-22T11:24:20.409Z,9.302943
2023-03-22T11:25:21.039Z,9.302884
2023-03-22T11:26:20.535Z,9.302933
2023-03-22T11:27:20.515Z,9.302827
2023-03-22T11:28:20.662Z,9.302927
2023-03-22T11:29:20.471Z,9.302968
2023-03-22T11:30:20.444Z,9.302960
2023-03-22T11:31:20.471Z,9.302850
2023-03-22T11:32:20.453Z,9.303053
2023-03-22T11:33:20.415Z,9.302904
2023-03-22T11:34:20.362Z,9.302980
2023-03-22T11:35:20.460Z,9.303074
2023-03-22T11:36:20.338Z,9.303102
2023-03-22T11:37:20.345Z,9.303114
2023-03-22T11:38:20.339Z,9.303069
2023-03-22T11:39:20.583Z,9.303115
2023-03-22T11:40:20.317Z,9.303124
2023-03-22T11:41:20.263Z,9.303037
2023-03-22T11:42:20.246Z,9.302854
2023-03-22T11:43:20.306Z,9.302806
2023-03-22T11:44:20.244Z,9.302986
2023-03-22T11:45:20.353Z,9.302916
2023-03-22T11:46:20.285Z,9.303040
2023-03-22T12:08:38.726Z,9.303004
2023-03-22T12:09:38.978Z,9.303055
2023-03-22T12:10:38.310Z,9.303059
2023-03-22T12:11:38.248Z,9.303070
2023-03-22T12:12:38.389Z,9.303002
2023-03-22T12:13:38.418Z,9.303049
2023-03-22T12:14:39.141Z,9.303074
2023-03-22T12:15:38.439Z,9.303015
2023-03-22T12:16:38.305Z,9.303023
2023-03-22T12:17:38.332Z,9.303045
2023-03-22T12:18:38.242Z,9.303032
2023-03-22T12:19:38.330Z,9.303121
2023-03-22T12:20:38.510Z,9.303065
2023-03-22T12:21:38.298Z,9.302964
2023-03-22T12:22:38.186Z,9.303014
2023-03-22T12:23:38.260Z,9.303102
2023-03-22T12:24:38.194Z,9.303105
2023-03-22T12:25:38.291Z,9.303009
2023-03-22T12:26:38.320Z,9.302965
2023-03-22T12:27:38.192Z,9.302871
2023-03-22T12:28:38.241Z,9.303129
2023-03-22T12:29:38.227Z,9.303020
2023-03-22T12:30:38.172Z,9.302960
2023-03-22T12:31:38.213Z,9.303014
2023-03-22T12:32:38.160Z,9.303132
2023-03-22T12:33:38.154Z,9.303074
2023-03-22T12:34:38.055Z,9.303109
2023-03-22T12:35:38.293Z,9.303134
2023-03-22T12:36:38.977Z,9.303069
2023-03-22T12:37:38.159Z,9.303135
2023-03-22T12:38:38.072Z,9.303169
2023-03-22T12:39:38.080Z,9.303152
2023-03-22T12:40:38.260Z,9.303158
2023-03-22T12:41:38.019Z,9.303083
2023-03-22T12:42:47.610Z,9.303269
2023-03-22T12:43:39.119Z,9.303202
2023-03-22T12:44:37.982Z,9.303170
2023-03-22T12:45:38.295Z,9.303162
2023-03-22T12:46:38.075Z,9.303213
2023-03-22T12:47:38.103Z,9.303224
2023-03-22T12:48:39.529Z,9.303194
2023-03-22T12:49:38.137Z,9.303364
2023-03-22T12:50:38.776Z,9.303440
2023-03-22T12:51:37.854Z,9.303237
2023-03-22T12:52:45.308Z,9.303227
2023-03-22T12:53:38.890Z,9.303113
2023-03-22T12:54:37.895Z,9.303189
2023-03-22T12:55:37.949Z,9.303170
2023-03-22T12:56:38.897Z,9.303136
2023-03-22T12:57:38.330Z,9.303220
2023-03-22T12:58:37.885Z,9.303092
2023-03-22T12:59:38.073Z,9.303368